JO-0008 weather

Al Quwayrah Highway Strip
Al 'Aqaba Governorate, Jordan

Public forecast

Using degrees Celsius for public forecast. Weather courtesy of forecast.io.

METAR (pilot weather report)

Closest report is Aqaba King Hussein International Airport, 20.6 nm (38.1 km) SW. Retrieved 2019/09/19 05:00 UTC (10 minutes ago):

OJAQ 190500Z 36010KT CAVOK 28/14 Q1010 NOSIG

TAF (pilot weather forecast)

Forecast is more than 12 hours old.

Closest forecast is Ramon Airport, 17.6 nm (32.5 km) WSW. Retrieved 2019/09/18 00:00 UTC (1 day ago):

TAF LLER 182303Z 1900/1924 02010KT CAVOK BECMG 1907/1909 01017KT PROB40 1909/1915 01020G30KT BECMG 1917/1920 35010KT TX38/1913Z TN24/1903Z